createdAt,value
2019-05-05T00:00:11.496Z,2.901611
2019-05-05T00:01:21.020Z,2.921753
2019-05-05T00:02:30.532Z,2.901611
2019-05-05T00:03:40.096Z,2.901611
2019-05-05T00:04:49.629Z,2.901611
2019-05-05T00:05:59.165Z,2.901611
2019-05-05T00:07:08.690Z,2.921753
2019-05-05T00:08:18.229Z,2.921753
2019-05-05T00:09:27.770Z,2.921753
2019-05-05T00:10:37.309Z,2.921753
2019-05-05T00:11:46.836Z,2.901611
2019-05-05T00:12:56.421Z,2.921753
2019-05-05T00:14:05.954Z,2.921753
2019-05-05T00:15:16.458Z,2.901611
2019-05-05T00:16:26.025Z,2.901611
2019-05-05T00:17:35.575Z,2.891541
2019-05-05T00:18:46.123Z,2.901611
2019-05-05T00:19:55.646Z,2.921753
2019-05-05T00:21:06.162Z,2.931824
2019-05-05T00:22:15.700Z,2.931824
2019-05-05T00:23:25.276Z,2.951965
2019-05-05T00:24:35.783Z,2.972107
2019-05-05T00:25:45.295Z,2.972107
2019-05-05T00:26:55.825Z,2.982178
2019-05-05T00:28:05.369Z,2.972107
2019-05-05T00:29:14.991Z,2.951965
2019-05-05T00:30:25.410Z,2.931824
2019-05-05T00:31:35.069Z,2.921753
2019-05-05T00:32:45.451Z,2.931824
2019-05-05T00:33:56.014Z,2.921753
2019-05-05T00:35:05.543Z,2.921753
2019-05-05T00:36:16.073Z,2.921753
2019-05-05T00:37:25.800Z,2.891541
2019-05-05T00:38:35.364Z,2.891541
2019-05-05T00:39:45.718Z,2.891541
2019-05-05T00:40:55.230Z,2.891541
2019-05-05T00:42:04.750Z,2.891541
2019-05-05T00:43:14.702Z,2.891541
2019-05-05T00:44:24.688Z,2.891541
2019-05-05T00:45:34.325Z,2.871399
2019-05-05T00:46:41.828Z,2.871399
2019-05-05T00:47:51.385Z,2.871399
2019-05-05T00:49:00.923Z,2.891541
2019-05-05T00:50:10.440Z,2.871399
2019-05-05T00:51:19.986Z,2.871399
2019-05-05T00:52:29.512Z,2.851257
2019-05-05T00:53:39.089Z,2.861328
2019-05-05T00:54:48.619Z,2.851257
2019-05-05T00:55:58.132Z,2.851257
2019-05-05T00:57:07.670Z,2.861328
2019-05-05T00:58:17.174Z,2.861328
2019-05-05T00:59:26.731Z,2.851257
2019-05-05T01:00:36.255Z,2.861328
2019-05-05T01:01:45.780Z,2.851257
2019-05-05T01:02:56.286Z,2.861328
2019-05-05T01:04:05.820Z,2.861328
2019-05-05T01:05:15.370Z,2.851257
2019-05-05T01:06:25.881Z,2.861328
2019-05-05T01:07:35.397Z,2.861328
2019-05-05T01:08:44.934Z,2.861328
2019-05-05T01:09:55.500Z,2.861328
2019-05-05T01:11:06.044Z,2.851257
2019-05-05T01:12:15.556Z,2.871399
2019-05-05T01:13:25.068Z,2.871399
2019-05-05T01:14:35.618Z,2.861328
2019-05-05T01:15:45.141Z,2.891541
2019-05-05T01:16:54.703Z,2.891541
2019-05-05T01:18:05.216Z,2.891541
2019-05-05T01:19:15.777Z,2.901611
2019-05-05T01:20:25.316Z,2.901611
2019-05-05T01:21:35.011Z,2.901611
2019-05-05T01:22:45.372Z,2.901611
2019-05-05T01:23:55.885Z,2.901611
2019-05-05T01:25:06.403Z,2.901611
2019-05-05T01:26:15.925Z,2.931824
2019-05-05T01:27:25.538Z,2.921753
2019-05-05T01:28:35.957Z,2.921753
2019-05-05T01:29:45.506Z,2.901611
2019-05-05T01:30:55.072Z,2.901611
2019-05-05T01:32:05.556Z,2.891541
2019-05-05T01:33:16.076Z,2.891541
2019-05-05T01:34:25.602Z,2.901611
2019-05-05T01:35:36.129Z,2.891541
2019-05-05T01:36:45.665Z,2.871399
2019-05-05T01:37:55.193Z,2.891541
2019-05-05T01:39:05.710Z,2.871399
2019-05-05T01:40:15.281Z,2.851257
2019-05-05T01:41:25.804Z,2.871399
2019-05-05T01:42:35.360Z,2.861328
2019-05-05T01:43:45.895Z,2.851257
2019-05-05T01:44:55.459Z,2.851257
2019-05-05T01:46:05.147Z,2.821045
2019-05-05T01:47:15.516Z,2.831116
2019-05-05T01:48:26.037Z,2.861328
2019-05-05T01:49:35.597Z,2.851257
2019-05-05T01:50:46.105Z,2.851257
2019-05-05T01:51:55.615Z,2.861328
2019-05-05T01:53:05.137Z,2.861328
2019-05-05T01:54:15.654Z,2.861328
2019-05-05T01:55:26.217Z,2.871399
2019-05-05T01:56:35.762Z,2.871399
2019-05-05T01:57:45.287Z,2.861328
2019-05-05T01:58:54.899Z,2.861328
2019-05-05T02:00:05.394Z,2.871399
2019-05-05T02:01:15.921Z,2.871399
2019-05-05T02:02:25.448Z,2.891541
2019-05-05T02:03:35.158Z,2.861328
2019-05-05T02:04:45.485Z,2.891541
2019-05-05T02:05:56.019Z,2.891541
2019-05-05T02:07:06.565Z,2.871399
2019-05-05T02:08:16.095Z,2.871399
2019-05-05T02:09:25.633Z,2.871399
2019-05-05T02:10:36.177Z,2.851257
2019-05-05T02:11:46.694Z,2.851257
2019-05-05T02:12:56.215Z,2.831116
2019-05-05T02:14:05.740Z,2.821045
2019-05-05T02:15:16.289Z,2.821045
2019-05-05T02:16:25.811Z,2.821045
2019-05-05T02:17:35.365Z,2.800903
2019-05-05T02:18:45.878Z,2.800903
2019-05-05T02:19:55.401Z,2.790833
2019-05-05T02:21:05.972Z,2.821045
2019-05-05T02:22:15.520Z,2.790833
2019-05-05T02:23:26.027Z,2.740479
2019-05-05T02:24:35.593Z,2.750549
2019-05-05T02:25:45.157Z,2.750549
2019-05-05T02:26:55.676Z,2.740479
2019-05-05T02:28:06.195Z,2.740479
2019-05-05T02:29:15.707Z,2.740479
2019-05-05T02:30:26.665Z,2.720337
2019-05-05T02:31:36.166Z,2.710266
2019-05-05T02:32:46.281Z,2.690125
2019-05-05T02:33:56.773Z,2.690125
2019-05-05T02:35:06.646Z,2.710266
2019-05-05T02:36:16.891Z,2.710266
2019-05-05T02:37:26.427Z,2.690125
2019-05-05T02:38:36.964Z,2.690125
2019-05-05T02:39:57.592Z,2.690125
2019-05-05T02:40:57.954Z,2.710266
2019-05-05T02:42:07.465Z,2.710266
2019-05-05T02:43:16.987Z,2.680054
2019-05-05T02:44:26.538Z,2.690125
2019-05-05T02:45:36.065Z,2.710266
2019-05-05T02:46:45.603Z,2.710266
2019-05-05T02:47:56.119Z,2.690125
2019-05-05T02:49:06.652Z,2.710266
2019-05-05T02:50:16.181Z,2.680054
2019-05-05T02:51:26.055Z,2.690125
2019-05-05T02:52:36.259Z,2.710266
2019-05-05T02:53:45.815Z,2.690125
2019-05-05T02:54:55.343Z,2.690125
2019-05-05T02:56:04.869Z,2.680054
2019-05-05T02:57:15.401Z,2.690125
2019-05-05T02:58:24.927Z,2.690125
2019-05-05T02:59:35.248Z,2.690125
2019-05-05T03:00:44.002Z,2.690125
2019-05-05T03:01:54.524Z,2.690125
2019-05-05T03:03:05.035Z,2.690125
2019-05-05T03:04:14.575Z,2.690125
2019-05-05T03:05:25.104Z,2.690125
2019-05-05T03:06:34.651Z,2.710266
2019-05-05T03:07:44.165Z,2.710266
2019-05-05T03:08:54.678Z,2.680054
2019-05-05T03:10:05.192Z,2.680054
2019-05-05T03:11:14.708Z,2.649841
2019-05-05T03:12:24.375Z,2.680054
2019-05-05T03:13:34.839Z,2.680054
2019-05-05T03:14:45.360Z,2.669983
2019-05-05T03:15:55.157Z,2.690125
2019-05-05T03:17:04.440Z,2.680054
2019-05-05T03:18:14.967Z,2.680054
2019-05-05T03:19:25.502Z,2.680054
2019-05-05T03:20:35.016Z,2.680054
2019-05-05T03:21:44.570Z,2.680054
2019-05-05T03:22:55.082Z,2.669983
2019-05-05T03:24:04.601Z,2.669983
2019-05-05T03:25:15.120Z,2.669983
2019-05-05T03:26:24.655Z,2.669983
2019-05-05T03:27:35.216Z,2.690125
2019-05-05T03:28:45.725Z,2.690125
2019-05-05T03:29:55.251Z,2.680054
2019-05-05T03:31:05.755Z,2.690125
2019-05-05T03:32:16.483Z,2.680054
2019-05-05T03:33:26.812Z,2.669983
2019-05-05T03:34:36.339Z,2.649841
2019-05-05T03:35:45.844Z,2.669983
2019-05-05T03:36:55.419Z,2.639771
2019-05-05T03:38:04.955Z,2.649841
2019-05-05T03:39:15.500Z,2.619629
2019-05-05T03:40:25.037Z,2.609558
2019-05-05T03:41:35.558Z,2.609558
2019-05-05T03:42:45.104Z,2.619629
2019-05-05T03:43:56.901Z,2.649841
2019-05-05T03:45:05.147Z,2.649841
2019-05-05T03:46:15.678Z,2.639771
2019-05-05T03:47:25.213Z,2.649841
2019-05-05T03:48:34.757Z,2.680054
2019-05-05T03:49:44.283Z,2.680054
2019-05-05T03:50:54.770Z,2.649841
2019-05-05T03:52:05.293Z,2.649841
2019-05-05T03:53:14.822Z,2.680054
2019-05-05T03:54:25.348Z,2.669983
2019-05-05T03:55:34.877Z,2.669983
2019-05-05T03:56:44.393Z,2.639771
2019-05-05T03:57:54.940Z,2.649841
2019-05-05T03:59:05.475Z,2.680054
2019-05-05T04:00:14.983Z,2.680054
2019-05-05T04:01:24.502Z,2.710266
2019-05-05T04:02:35.040Z,2.710266
2019-05-05T04:03:45.547Z,2.720337
2019-05-05T04:04:55.160Z,2.750549
2019-05-05T04:06:04.596Z,2.770691
2019-05-05T04:07:15.123Z,2.770691
2019-05-05T04:08:24.659Z,2.750549
2019-05-05T04:09:35.176Z,2.790833
2019-05-05T04:10:44.697Z,2.770691
2019-05-05T04:11:55.208Z,2.750549
2019-05-05T04:13:05.748Z,2.770691
2019-05-05T04:14:18.220Z,2.790833
2019-05-05T04:15:25.771Z,2.800903
2019-05-05T04:16:35.291Z,2.800903
2019-05-05T04:17:44.811Z,2.790833
2019-05-05T04:18:54.347Z,2.770691
2019-05-05T04:20:04.838Z,2.800903
2019-05-05T04:21:14.594Z,2.790833
2019-05-05T04:22:24.849Z,2.800903
2019-05-05T04:23:35.382Z,2.821045
2019-05-05T04:24:44.914Z,2.831116
2019-05-05T04:25:55.447Z,2.800903
2019-05-05T04:27:04.955Z,2.871399
2019-05-05T04:28:15.483Z,2.901611
2019-05-05T04:29:24.995Z,2.871399
2019-05-05T04:30:35.511Z,2.871399
2019-05-05T04:31:45.039Z,2.891541
2019-05-05T04:32:54.782Z,2.891541
2019-05-05T04:34:05.057Z,2.921753
2019-05-05T04:35:14.613Z,2.921753
2019-05-05T04:36:25.121Z,2.921753
2019-05-05T04:37:34.652Z,2.931824
2019-05-05T04:38:44.211Z,2.931824
2019-05-05T04:39:54.724Z,2.931824
2019-05-05T04:41:05.249Z,2.931824
2019-05-05T04:42:14.778Z,2.951965
2019-05-05T04:43:25.311Z,2.972107
2019-05-05T04:44:34.933Z,2.982178
2019-05-05T04:45:45.371Z,2.972107
2019-05-05T04:46:54.901Z,2.972107
2019-05-05T04:48:04.429Z,2.972107
2019-05-05T04:49:14.967Z,2.972107
2019-05-05T04:50:24.492Z,2.972107
2019-05-05T04:51:46.516Z,2.972107
2019-05-05T04:52:45.557Z,3.002319
2019-05-05T04:53:55.071Z,3.01239
2019-05-05T04:55:04.607Z,3.002319
2019-05-05T04:56:15.139Z,3.01239
2019-05-05T04:57:25.676Z,3.01239
2019-05-05T04:58:36.217Z,3.01239
2019-05-05T04:59:45.727Z,3.01239
2019-05-05T05:00:55.230Z,2.972107
2019-05-05T05:02:05.745Z,2.951965
2019-05-05T05:03:15.290Z,2.931824
2019-05-05T05:04:24.812Z,2.982178
2019-05-05T05:05:34.326Z,3.01239
2019-05-05T05:06:44.840Z,3.042603
2019-05-05T05:07:57.951Z,3.072815
2019-05-05T05:09:04.906Z,3.103027
2019-05-05T05:10:15.430Z,3.163452
2019-05-05T05:11:24.949Z,3.183594
2019-05-05T05:12:34.477Z,3.183594
2019-05-05T05:13:44.186Z,3.193665
2019-05-05T05:14:54.759Z,3.163452
2019-05-05T05:16:05.048Z,3.163452
2019-05-05T05:17:14.563Z,3.213806
2019-05-05T05:18:25.059Z,3.233948
2019-05-05T05:19:35.578Z,3.26416
2019-05-05T05:20:45.117Z,3.294373
2019-05-05T05:22:00.975Z,3.344727
2019-05-05T05:23:06.159Z,3.374939
2019-05-05T05:24:15.698Z,3.405151
2019-05-05T05:25:25.223Z,3.435364
2019-05-05T05:26:35.738Z,3.465576
2019-05-05T05:27:45.280Z,3.465576
2019-05-05T05:28:54.823Z,3.445435
2019-05-05T05:30:05.340Z,3.475647
2019-05-05T05:31:14.852Z,3.475647
2019-05-05T05:32:25.363Z,3.495789
2019-05-05T05:33:34.900Z,3.556213
2019-05-05T05:34:44.423Z,3.596497
2019-05-05T05:35:54.954Z,3.626709
2019-05-05T05:37:04.507Z,3.687134
2019-05-05T05:38:14.245Z,3.697205
2019-05-05T05:39:24.569Z,3.757629
2019-05-05T05:40:34.302Z,3.777771
2019-05-05T05:41:44.622Z,3.838196
2019-05-05T05:42:55.149Z,3.878479
2019-05-05T05:44:05.674Z,3.918762
2019-05-05T05:45:15.190Z,3.938904
2019-05-05T05:46:24.705Z,3.959045
2019-05-05T05:47:34.229Z,3.979187
2019-05-05T05:48:44.771Z,4.01947
2019-05-05T05:49:54.447Z,4.009399
2019-05-05T05:51:04.827Z,4.049683
2019-05-05T05:52:18.894Z,4.01947
2019-05-05T05:53:24.855Z,4.01947
2019-05-05T05:54:35.395Z,3.989258
2019-05-05T05:55:44.970Z,4.049683
2019-05-05T05:56:54.497Z,4.079895
2019-05-05T05:58:05.040Z,4.100037
2019-05-05T05:59:14.579Z,4.130249
2019-05-05T06:00:25.118Z,4.160461
2019-05-05T06:01:35.631Z,4.14032
2019-05-05T06:02:45.144Z,4.160461
2019-05-05T06:03:55.675Z,4.200745
2019-05-05T06:05:05.197Z,4.220886
2019-05-05T06:06:15.721Z,4.301453
2019-05-05T06:07:25.249Z,4.351807
2019-05-05T06:08:34.869Z,4.382019
2019-05-05T06:09:45.297Z,4.371948
2019-05-05T06:10:54.879Z,4.341736
2019-05-05T06:12:05.373Z,4.311523
2019-05-05T06:13:15.686Z,4.281311
2019-05-05T06:14:25.415Z,4.261169
2019-05-05T06:15:34.951Z,4.241028
2019-05-05T06:16:45.487Z,4.230957
2019-05-05T06:17:54.995Z,4.230957
2019-05-05T06:19:05.552Z,4.230957
2019-05-05T06:20:15.068Z,4.261169
2019-05-05T06:21:24.617Z,4.281311
2019-05-05T06:22:34.439Z,4.341736
2019-05-05T06:23:44.693Z,4.321594
2019-05-05T06:24:54.243Z,4.341736
2019-05-05T06:26:06.633Z,4.341736
2019-05-05T06:27:15.281Z,4.341736
2019-05-05T06:28:24.791Z,4.351807
2019-05-05T06:29:35.338Z,4.371948
2019-05-05T06:30:44.851Z,4.351807
2019-05-05T06:31:55.382Z,4.382019
2019-05-05T06:33:05.038Z,4.371948
2019-05-05T06:34:14.412Z,4.382019
2019-05-05T06:35:24.969Z,4.371948
2019-05-05T06:36:34.495Z,4.382019
2019-05-05T06:37:46.673Z,4.371948
2019-05-05T06:38:55.531Z,4.382019
2019-05-05T06:40:05.052Z,4.321594
2019-05-05T06:41:14.767Z,4.230957
2019-05-05T06:42:24.163Z,4.170532
2019-05-05T06:43:34.894Z,4.160461
2019-05-05T06:44:45.214Z,4.160461
2019-05-05T06:45:54.737Z,4.190674
2019-05-05T06:47:05.272Z,4.241028
2019-05-05T06:48:14.788Z,4.311523
2019-05-05T06:49:24.324Z,4.371948
2019-05-05T06:50:34.830Z,4.452515
2019-05-05T06:51:44.362Z,4.452515
2019-05-05T06:52:54.897Z,4.452515
2019-05-05T06:54:05.431Z,4.442444
2019-05-05T06:55:14.943Z,4.442444
2019-05-05T06:56:25.467Z,4.422302
2019-05-05T06:57:34.997Z,4.482727
2019-05-05T06:58:45.504Z,4.52301
2019-05-05T06:59:55.027Z,4.492798
2019-05-05T07:01:04.567Z,4.442444
2019-05-05T07:02:15.109Z,4.371948
2019-05-05T07:03:24.643Z,4.351807
2019-05-05T07:04:34.221Z,4.351807
2019-05-05T07:05:44.685Z,4.371948
2019-05-05T07:06:57.030Z,4.321594
2019-05-05T07:08:05.745Z,4.321594
2019-05-05T07:09:15.285Z,4.301453
2019-05-05T07:10:25.783Z,4.311523
2019-05-05T07:11:35.311Z,4.301453
2019-05-05T07:12:44.850Z,4.220886
2019-05-05T07:13:55.365Z,4.230957
2019-05-05T07:15:04.904Z,4.230957
2019-05-05T07:16:15.411Z,4.241028
2019-05-05T07:17:24.934Z,4.311523
2019-05-05T07:18:34.699Z,4.311523
2019-05-05T07:19:45.245Z,4.301453
2019-05-05T07:20:54.783Z,4.351807
2019-05-05T07:22:04.348Z,4.402161
2019-05-05T07:23:14.834Z,4.442444
2019-05-05T07:24:25.348Z,4.492798
2019-05-05T07:25:42.658Z,4.553223
2019-05-05T07:26:45.371Z,4.633789
2019-05-05T07:27:54.876Z,4.674072
2019-05-05T07:29:05.382Z,4.784851
2019-05-05T07:30:15.931Z,4.815063
2019-05-05T07:31:25.444Z,4.865417
2019-05-05T07:32:34.963Z,4.815063
2019-05-05T07:33:45.543Z,4.855347
2019-05-05T07:34:55.048Z,4.915771
2019-05-05T07:36:06.066Z,4.925842
2019-05-05T07:37:15.081Z,4.956055
2019-05-05T07:38:24.590Z,4.966125
2019-05-05T07:39:34.162Z,4.966125
2019-05-05T07:40:44.644Z,4.966125
2019-05-05T07:41:55.142Z,4.996338
2019-05-05T07:43:05.671Z,4.966125
2019-05-05T07:44:25.329Z,4.986267
2019-05-05T07:45:25.955Z,5.016479
2019-05-05T07:46:35.293Z,4.966125
2019-05-05T07:47:47.251Z,4.855347
2019-05-05T07:48:55.284Z,4.804993
2019-05-05T07:50:04.793Z,4.815063
2019-05-05T07:51:15.316Z,4.815063
2019-05-05T07:52:24.841Z,4.804993
2019-05-05T07:53:35.372Z,4.835205
2019-05-05T07:54:45.008Z,4.77478
2019-05-05T07:55:56.259Z,4.885559
2019-05-05T07:57:06.807Z,4.996338
2019-05-05T07:58:16.334Z,5.046692
2019-05-05T07:59:25.862Z,5.167542
2019-05-05T08:00:35.381Z,5.27832
2019-05-05T08:01:46.622Z,5.459595
2019-05-05T08:02:55.395Z,5.640869
2019-05-05T08:04:04.921Z,5.761719
2019-05-05T08:05:14.502Z,5.802002
2019-05-05T08:06:25.038Z,5.751648
2019-05-05T08:07:34.601Z,5.761719
2019-05-05T08:08:45.113Z,5.862427
2019-05-05T08:09:55.630Z,5.942993
2019-05-05T08:11:05.189Z,6.013489
2019-05-05T08:12:15.799Z,6.094055
2019-05-05T08:13:26.312Z,6.094055
2019-05-05T08:14:35.867Z,6.204834
2019-05-05T08:15:56.197Z,6.255188
2019-05-05T08:16:55.927Z,6.235046
2019-05-05T08:18:05.427Z,6.305542
2019-05-05T08:19:14.968Z,6.355896
2019-05-05T08:20:25.506Z,6.416321
2019-05-05T08:21:35.041Z,6.476746
2019-05-05T08:22:44.579Z,6.486816
2019-05-05T08:23:54.188Z,6.567383
2019-05-05T08:25:04.640Z,6.688232
2019-05-05T08:26:15.212Z,6.748657
2019-05-05T08:27:25.028Z,6.889648
2019-05-05T08:28:34.291Z,6.960144
2019-05-05T08:29:43.895Z,7.101135
2019-05-05T08:30:54.647Z,7.151489
2019-05-05T08:32:05.018Z,7.201843
2019-05-05T08:33:14.556Z,7.000427
2019-05-05T08:34:25.074Z,6.929932
2019-05-05T08:35:34.614Z,6.919861
2019-05-05T08:36:45.148Z,6.970215
2019-05-05T08:37:54.796Z,7.03064
2019-05-05T08:39:05.317Z,6.879578
2019-05-05T08:40:14.902Z,6.839294
2019-05-05T08:41:24.494Z,6.839294
2019-05-05T08:42:34.886Z,6.77887
2019-05-05T08:43:45.404Z,6.698303
2019-05-05T08:44:54.920Z,6.698303
2019-05-05T08:46:05.447Z,6.738586
2019-05-05T08:47:14.986Z,6.78894
2019-05-05T08:48:25.508Z,6.78894
2019-05-05T08:49:35.039Z,6.839294
2019-05-05T08:50:45.535Z,6.819153
2019-05-05T08:51:55.062Z,6.839294
2019-05-05T08:53:08.142Z,6.839294
2019-05-05T08:54:15.083Z,6.738586
2019-05-05T08:55:28.056Z,6.748657
2019-05-05T08:56:35.114Z,6.869507
2019-05-05T08:57:45.673Z,6.839294
2019-05-05T08:58:55.195Z,6.889648
2019-05-05T09:00:04.999Z,6.950073
2019-05-05T09:01:14.901Z,7.03064
2019-05-05T09:02:24.735Z,7.131348
2019-05-05T09:03:35.243Z,7.181702
2019-05-05T09:04:44.875Z,7.201843
2019-05-05T09:05:54.382Z,7.151489
2019-05-05T09:07:05.156Z,7.232056
2019-05-05T09:08:14.387Z,7.332764
2019-05-05T09:09:24.895Z,7.473755
2019-05-05T09:10:34.546Z,7.574463
2019-05-05T09:11:44.932Z,7.725525
2019-05-05T09:12:55.474Z,7.715454
2019-05-05T09:14:04.989Z,7.796021
2019-05-05T09:15:15.522Z,7.947083
2019-05-05T09:16:25.057Z,7.906799
2019-05-05T09:17:34.582Z,7.876587
2019-05-05T09:18:45.093Z,7.977295
2019-05-05T09:19:55.617Z,8.148499
2019-05-05T09:21:05.262Z,8.229065
2019-05-05T09:22:14.795Z,8.359985
2019-05-05T09:23:25.337Z,8.531189
2019-05-05T09:24:36.111Z,8.702393
2019-05-05T09:25:45.647Z,8.883667
2019-05-05T09:26:55.174Z,8.954163
2019-05-05T09:28:06.090Z,8.712463
2019-05-05T09:29:15.217Z,8.460693
2019-05-05T09:30:24.739Z,8.329773
2019-05-05T09:31:34.407Z,8.128357
2019-05-05T09:32:44.791Z,7.947083
2019-05-05T09:33:55.305Z,7.876587
2019-05-05T09:35:04.928Z,7.997437
2019-05-05T09:36:14.376Z,8.027649
2019-05-05T09:37:24.915Z,8.088074
2019-05-05T09:38:34.815Z,8.158569
2019-05-05T09:39:44.958Z,8.359985
2019-05-05T09:40:55.480Z,8.631897
2019-05-05T09:42:05.966Z,8.823242
2019-05-05T09:43:15.494Z,8.913879
2019-05-05T09:44:25.010Z,9.004517
2019-05-05T09:45:35.528Z,8.994446
2019-05-05T09:46:45.048Z,8.873596
2019-05-05T09:47:54.586Z,9.024658
2019-05-05T09:49:05.117Z,8.994446
2019-05-05T09:50:14.630Z,9.0448
2019-05-05T09:51:24.278Z,9.064941
2019-05-05T09:52:34.705Z,9.246216
2019-05-05T09:53:45.262Z,9.205933
2019-05-05T09:54:54.781Z,9.286499
2019-05-05T09:56:04.301Z,9.356995
2019-05-05T09:57:14.825Z,9.316711
2019-05-05T09:58:24.371Z,9.276428
2019-05-05T09:59:34.880Z,9.286499
2019-05-05T10:00:45.380Z,9.246216
2019-05-05T10:01:55.904Z,9.407349
2019-05-05T10:03:05.420Z,9.356995
2019-05-05T10:04:14.973Z,9.367065
2019-05-05T10:05:25.482Z,9.095154
2019-05-05T10:06:35.015Z,9.276428
2019-05-05T10:07:45.533Z,9.437561
2019-05-05T10:08:55.062Z,9.54834
2019-05-05T10:10:04.672Z,9.638977
2019-05-05T10:11:16.588Z,9.588623
2019-05-05T10:12:24.604Z,9.578552
2019-05-05T10:13:35.147Z,9.508057
2019-05-05T10:14:44.982Z,9.397278
2019-05-05T10:15:55.222Z,9.397278
2019-05-05T10:17:05.058Z,9.407349
2019-05-05T10:18:15.262Z,9.538269
2019-05-05T10:19:25.776Z,9.649048
2019-05-05T10:20:35.285Z,9.759827
2019-05-05T10:21:44.805Z,9.951172
2019-05-05T10:22:54.375Z,10.092163
2019-05-05T10:24:04.542Z,10.233154
2019-05-05T10:25:14.390Z,10.283508
2019-05-05T10:26:24.904Z,10.192871
2019-05-05T10:27:44.164Z,10.132446
2019-05-05T10:28:45.973Z,10.162659
2019-05-05T10:29:55.482Z,10.152588
2019-05-05T10:31:04.982Z,9.981384
2019-05-05T10:32:14.501Z,9.840393
2019-05-05T10:33:25.026Z,9.67926
2019-05-05T10:34:35.543Z,9.739685
2019-05-05T10:35:45.072Z,9.638977
2019-05-05T10:36:54.603Z,9.578552
2019-05-05T10:38:05.121Z,9.659119
2019-05-05T10:39:15.628Z,9.759827
2019-05-05T10:40:25.159Z,9.759827
2019-05-05T10:41:34.687Z,9.719543
2019-05-05T10:42:45.215Z,9.719543
2019-05-05T10:43:54.731Z,9.649048
2019-05-05T10:45:04.454Z,9.67926
2019-05-05T10:46:14.770Z,9.790039
2019-05-05T10:47:24.285Z,9.971313
2019-05-05T10:48:34.073Z,9.991455
2019-05-05T10:49:44.116Z,9.769897
2019-05-05T10:50:53.693Z,9.830322
2019-05-05T10:52:03.654Z,9.981384
2019-05-05T10:53:13.602Z,9.820251
2019-05-05T10:54:23.419Z,9.739685
2019-05-05T10:55:34.260Z,9.80011
2019-05-05T10:56:41.510Z,9.890747
2019-05-05T10:57:51.031Z,9.991455
2019-05-05T10:59:00.577Z,10.132446
2019-05-05T11:00:13.091Z,10.333862
2019-05-05T11:01:19.616Z,10.384216
2019-05-05T11:02:30.138Z,10.55542
2019-05-05T11:03:39.671Z,10.666199
2019-05-05T11:04:49.237Z,10.625916
2019-05-05T11:05:58.779Z,10.505066
2019-05-05T11:07:08.301Z,10.535278
2019-05-05T11:08:17.842Z,10.484924
2019-05-05T11:09:27.386Z,10.494995
2019-05-05T11:10:36.928Z,10.4245
2019-05-05T11:11:46.422Z,10.202942
2019-05-05T11:12:55.949Z,9.981384
2019-05-05T11:14:05.512Z,9.910889
2019-05-05T11:15:15.022Z,10.011597
2019-05-05T11:16:25.549Z,10.102234
2019-05-05T11:17:35.086Z,10.152588
2019-05-05T11:18:44.630Z,10.202942
2019-05-05T11:19:55.171Z,10.202942
2019-05-05T11:21:04.716Z,10.05188
2019-05-05T11:22:15.255Z,9.951172
2019-05-05T11:23:24.997Z,9.739685
2019-05-05T11:24:35.333Z,9.80011
2019-05-05T11:25:45.829Z,9.719543
2019-05-05T11:26:55.388Z,9.457703
2019-05-05T11:28:04.915Z,9.286499
2019-05-05T11:29:14.473Z,9.105225
2019-05-05T11:30:26.885Z,8.974304
2019-05-05T11:31:34.503Z,8.913879
2019-05-05T11:32:44.165Z,8.913879
2019-05-05T11:33:54.160Z,8.893738
2019-05-05T11:35:04.731Z,8.641968
2019-05-05T11:36:13.574Z,8.581543
2019-05-05T11:37:22.124Z,8.551331
2019-05-05T11:38:33.827Z,8.611755
2019-05-05T11:39:44.336Z,8.299561
2019-05-05T11:40:51.705Z,8.148499
2019-05-05T11:42:01.207Z,7.937012
2019-05-05T11:43:10.742Z,7.876587
2019-05-05T11:44:20.255Z,8.027649
2019-05-05T11:45:29.771Z,8.078003
2019-05-05T11:46:39.293Z,8.078003
2019-05-05T11:47:48.812Z,8.007507
2019-05-05T11:48:58.358Z,7.997437
2019-05-05T11:50:07.884Z,7.977295
2019-05-05T11:51:17.413Z,7.926941
2019-05-05T11:52:26.927Z,7.977295
2019-05-05T11:53:36.465Z,7.977295
2019-05-05T11:54:46.014Z,7.967224
2019-05-05T11:55:56.516Z,7.977295
2019-05-05T11:57:06.042Z,7.937012
2019-05-05T11:58:15.551Z,8.007507
2019-05-05T11:59:26.110Z,8.198853
2019-05-05T12:00:35.634Z,8.42041
2019-05-05T12:01:45.171Z,8.662109
2019-05-05T12:02:55.694Z,8.92395
2019-05-05T12:04:05.213Z,9.034729
2019-05-05T12:05:15.742Z,9.155579
2019-05-05T12:06:25.261Z,9.135437
2019-05-05T12:07:34.789Z,9.356995
2019-05-05T12:08:45.814Z,9.42749
2019-05-05T12:09:54.855Z,9.558411
2019-05-05T12:11:04.573Z,9.578552
2019-05-05T12:12:14.231Z,9.67926
2019-05-05T12:13:22.390Z,9.769897
2019-05-05T12:14:31.911Z,9.830322
2019-05-05T12:15:41.460Z,10.041809
2019-05-05T12:16:50.962Z,10.343933
2019-05-05T12:18:00.494Z,10.585632
2019-05-05T12:19:09.998Z,10.92804
2019-05-05T12:20:19.532Z,10.968323
2019-05-05T12:21:29.074Z,10.666199
2019-05-05T12:22:38.611Z,10.595703
2019-05-05T12:23:48.114Z,10.484924
2019-05-05T12:24:57.663Z,10.595703
2019-05-05T12:26:07.155Z,10.494995
2019-05-05T12:27:16.651Z,10.30365
2019-05-05T12:28:26.173Z,10.384216
2019-05-05T12:29:35.688Z,10.233154
2019-05-05T12:30:45.217Z,10.263367
2019-05-05T12:31:55.746Z,10.343933
2019-05-05T12:33:05.276Z,10.464783
2019-05-05T12:34:14.793Z,10.525208
2019-05-05T12:35:24.347Z,10.565491
2019-05-05T12:36:34.875Z,10.464783
2019-05-05T12:37:45.417Z,10.202942
2019-05-05T12:38:54.924Z,9.910889
2019-05-05T12:40:04.457Z,9.508057
2019-05-05T12:41:15.018Z,8.92395
2019-05-05T12:42:24.497Z,8.370056
2019-05-05T12:43:34.193Z,7.745667
2019-05-05T12:44:44.559Z,6.970215
2019-05-05T12:45:55.069Z,6.557312
2019-05-05T12:47:05.602Z,6.446533
2019-05-05T12:48:15.158Z,6.325684
2019-05-05T12:49:25.370Z,6.446533
2019-05-05T12:50:34.246Z,6.597595
2019-05-05T12:51:44.740Z,6.819153
2019-05-05T12:52:55.241Z,7.000427
2019-05-05T12:54:04.748Z,7.322693
2019-05-05T12:55:15.247Z,7.514038
2019-05-05T12:56:25.769Z,7.846375
2019-05-05T12:57:35.276Z,8.239136
2019-05-05T12:58:44.788Z,8.551331
2019-05-05T12:59:55.329Z,8.873596
2019-05-05T13:01:04.860Z,9.286499
2019-05-05T13:02:15.358Z,9.588623
2019-05-05T13:03:24.886Z,9.659119
2019-05-05T13:04:35.410Z,9.820251
2019-05-05T13:05:44.940Z,10.092163
2019-05-05T13:06:54.475Z,9.971313
2019-05-05T13:08:04.985Z,10.132446
2019-05-05T13:09:15.498Z,10.313721
2019-05-05T13:10:25.051Z,10.384216
2019-05-05T13:11:34.556Z,10.716553
2019-05-05T13:12:44.070Z,10.867615
2019-05-05T13:13:54.709Z,10.867615
2019-05-05T13:15:04.238Z,10.414429
2019-05-05T13:16:14.636Z,10.444641
2019-05-05T13:17:25.143Z,10.102234
2019-05-05T13:18:34.691Z,10.072021
2019-05-05T13:19:44.218Z,9.739685
2019-05-05T13:20:53.792Z,9.457703
2019-05-05T13:22:04.281Z,9.226074
2019-05-05T13:23:14.475Z,8.853455
2019-05-05T13:24:24.303Z,8.329773
2019-05-05T13:25:34.837Z,7.906799
2019-05-05T13:26:45.325Z,7.6651
2019-05-05T13:27:57.289Z,7.423401
2019-05-05T13:29:04.683Z,7.151489
2019-05-05T13:30:15.221Z,6.77887
2019-05-05T13:31:24.765Z,6.456604
2019-05-05T13:32:34.308Z,6.345825
2019-05-05T13:33:44.800Z,6.144409
2019-05-05T13:34:55.329Z,6.043701
2019-05-05T13:36:04.893Z,5.932922
2019-05-05T13:37:14.404Z,5.832214
2019-05-05T13:38:24.914Z,5.711365
2019-05-05T13:39:35.448Z,5.681152